Terminal Aerodrome Forecast
Issued by NWS

Home | Current Version | Previous Version | Text Only | Print | Product List | Glossary On
Versions: 1 2 3 4 5 6 7 8 9 10 11 12 13 14 15 16 17 18 19 20 21 22 23 24 25 26 27 28 29 30
000
FTUS44 KOUN 181128
TAFLAW
TAF
KLAW 181128Z 1812/1912 16005KT P6SM SCT250
     FM181900 18010G18KT P6SM SCT050
     FM182300 15009KT P6SM SCT050 PROB30 1906/1910 4SM TSRA
      BKN040CB=

USA.gov is the U.S. government's official web portal to all federal, state and local government web resources and services.